TTN weather

Trenton Mercer Airport
Trenton, New Jersey, United States

Public forecast

Using degrees Fahrenheit for public forecast. Weather courtesy of forecast.io.

Current aviation weather report (METAR) for Trenton Mercer Airport

Retrieved 2020/04/09 13:53 UTC (37 minutes ago):

KTTN 091353Z 17008KT 10SM OVC010 11/10 A2933 RMK AO2 RAE07 SLP925 P0000 T01110100

Aviation forecast (TAF) for Trenton Mercer Airport

Retrieved 2020/04/09 12:33 UTC (2 hours ago):

TAF KTTN 091130Z 0912/1012 15008KT 6SM -SHRA BR BKN015 FM091400 20010G18KT P6SM BKN025 FM091600 25015G25KT 6SM SHRA VCTS BKN040CB TEMPO 0916/0919 VRB25G35KT 4SM TSRA OVC030CB FM091900 29020G34KT P6SM SCT080 FM100000 29010G18KT P6SM SCT100